createdAt,value
2018-11-22T00:00:08.785Z,4.36
2018-11-22T00:01:09.036Z,4.34
2018-11-22T00:02:09.014Z,4.36
2018-11-22T00:03:08.981Z,4.36
2018-11-22T00:04:08.960Z,4.33
2018-11-22T00:05:08.960Z,4.34
2018-11-22T00:06:08.925Z,4.32
2018-11-22T00:07:08.894Z,4.4
2018-11-22T00:08:08.620Z,4.28
2018-11-22T00:09:08.870Z,4.34
2018-11-22T00:10:08.835Z,4.43
2018-11-22T00:11:08.816Z,4.37
2018-11-22T00:12:08.269Z,4.29
2018-11-22T00:13:08.505Z,4.34
2018-11-22T00:14:08.487Z,4.37
2018-11-22T00:15:08.744Z,4.29
2018-11-22T00:16:08.448Z,4.42
2018-11-22T00:17:08.427Z,4.39
2018-11-22T00:18:08.418Z,4.39
2018-11-22T00:19:08.647Z,4.32
2018-11-22T00:20:08.359Z,4.33
2018-11-22T00:21:08.655Z,4.39
2018-11-22T00:22:08.332Z,4.37
2018-11-22T00:23:08.599Z,4.37
2018-11-22T00:24:08.542Z,4.36
2018-11-22T00:25:08.264Z,4.36
2018-11-22T00:26:08.492Z,4.43
2018-11-22T00:27:08.214Z,4.33
2018-11-22T00:28:08.459Z,4.37
2018-11-22T00:29:08.177Z,4.4
2018-11-22T00:30:08.414Z,4.33
2018-11-22T00:31:08.394Z,4.33
2018-11-22T00:32:08.372Z,4.33
2018-11-22T00:33:07.822Z,4.36
2018-11-22T00:34:08.062Z,4.43
2018-11-22T00:35:08.042Z,4.37
2018-11-22T00:36:08.024Z,4.36
2018-11-22T00:37:07.993Z,4.34
2018-11-22T00:38:07.973Z,4.36
2018-11-22T00:39:08.238Z,4.32
2018-11-22T00:40:08.216Z,4.33
2018-11-22T00:41:08.174Z,4.36
2018-11-22T00:42:07.666Z,4.32
2018-11-22T00:43:08.136Z,4.4
2018-11-22T00:44:07.856Z,4.39
2018-11-22T00:45:08.105Z,4.32
2018-11-22T00:46:08.078Z,4.36
2018-11-22T00:47:08.785Z,4.39
2018-11-22T00:48:07.770Z,4.37
2018-11-22T00:49:07.752Z,4.34
2018-11-22T00:50:07.989Z,4.36
2018-11-22T00:51:07.964Z,4.34
2018-11-22T00:52:07.942Z,4.34
2018-11-22T00:53:07.668Z,4.34
2018-11-22T00:54:07.634Z,4.34
2018-11-22T00:55:07.876Z,4.36
2018-11-22T00:56:07.859Z,4.37
2018-11-22T00:57:07.579Z,4.36
2018-11-22T00:58:07.556Z,4.29
2018-11-22T00:59:07.793Z,4.34
2018-11-22T01:00:07.512Z,4.39
2018-11-22T01:01:07.491Z,4.29
2018-11-22T01:02:07.464Z,4.36
2018-11-22T01:03:07.713Z,4.33
2018-11-22T01:04:07.163Z,4.36
2018-11-22T01:05:07.675Z,4.34
2018-11-22T01:06:07.649Z,4.39
2018-11-22T01:07:07.628Z,4.29
2018-11-22T01:08:07.644Z,4.32
2018-11-22T01:09:07.056Z,4.4
2018-11-22T01:10:07.567Z,4.36
2018-11-22T01:11:07.552Z,4.36
2018-11-22T01:12:06.997Z,4.34
2018-11-22T01:13:07.506Z,4.34
2018-11-22T01:14:06.949Z,4.39
2018-11-22T01:15:07.194Z,4.33
2018-11-22T01:16:06.912Z,4.36
2018-11-22T01:17:07.416Z,4.32
2018-11-22T01:18:07.129Z,4.37
2018-11-22T01:19:06.845Z,4.33
2018-11-22T01:20:07.356Z,4.4
2018-11-22T01:21:07.351Z,4.37
2018-11-22T01:22:06.791Z,4.4
2018-11-22T01:23:07.289Z,4.32
2018-11-22T01:24:07.058Z,4.34
2018-11-22T01:25:06.982Z,4.33
2018-11-22T01:26:07.225Z,4.36
2018-11-22T01:27:06.940Z,4.39
2018-11-22T01:28:06.943Z,4.39
2018-11-22T01:29:06.895Z,4.33
2018-11-22T01:30:06.648Z,4.37
2018-11-22T01:31:07.120Z,4.33
2018-11-22T01:32:06.844Z,4.29
2018-11-22T01:33:06.811Z,4.4
2018-11-22T01:34:06.788Z,4.33
2018-11-22T01:35:07.045Z,4.33
2018-11-22T01:36:07.016Z,4.34
2018-11-22T01:37:06.989Z,4.32
2018-11-22T01:38:06.978Z,4.36
2018-11-22T01:39:06.687Z,4.39
2018-11-22T01:40:06.926Z,4.37
2018-11-22T01:41:06.908Z,4.24
2018-11-22T01:42:06.889Z,4.37
2018-11-22T01:43:06.607Z,4.37
2018-11-22T01:44:06.576Z,4.33
2018-11-22T01:45:06.560Z,4.34
2018-11-22T01:46:06.808Z,4.34
2018-11-22T01:47:06.787Z,4.34
2018-11-22T01:48:06.494Z,4.36
2018-11-22T01:49:06.732Z,4.36
2018-11-22T01:50:06.727Z,4.36
2018-11-22T01:51:06.439Z,4.32
2018-11-22T01:52:06.409Z,4.36
2018-11-22T01:53:06.656Z,4.39
2018-11-22T01:54:06.632Z,4.37
2018-11-22T01:55:06.621Z,4.36
2018-11-22T01:56:06.609Z,4.28
2018-11-22T01:57:06.307Z,4.33
2018-11-22T01:58:06.284Z,4.37
2018-11-22T01:59:06.261Z,4.37
2018-11-22T02:00:06.239Z,4.28
2018-11-22T02:01:06.216Z,4.29
2018-11-22T02:02:06.464Z,4.28
2018-11-22T02:03:06.476Z,4.32
2018-11-22T02:04:06.153Z,4.26
2018-11-22T02:05:06.397Z,4.21
2018-11-22T02:06:06.382Z,4.32
2018-11-22T02:07:06.090Z,4.22
2018-11-22T02:08:06.342Z,4.24
2018-11-22T02:09:05.792Z,4.22
2018-11-22T02:10:06.292Z,4.22
2018-11-22T02:11:06.274Z,4.29
2018-11-22T02:12:06.251Z,4.26
2018-11-22T02:13:05.707Z,4.33
2018-11-22T02:14:06.210Z,4.25
2018-11-22T02:15:06.183Z,4.22
2018-11-22T02:16:05.913Z,4.26
2018-11-22T02:17:05.618Z,4.22
2018-11-22T02:18:06.124Z,4.19
2018-11-22T02:19:06.104Z,4.28
2018-11-22T02:20:06.084Z,4.19
2018-11-22T02:21:06.062Z,4.22
2018-11-22T02:22:06.053Z,4.26
2018-11-22T02:23:05.757Z,4.22
2018-11-22T02:24:05.741Z,4.26
2018-11-22T02:25:05.772Z,4.19
2018-11-22T02:26:05.950Z,4.26
2018-11-22T02:27:05.947Z,4.25
2018-11-22T02:28:05.651Z,4.28
2018-11-22T02:29:05.897Z,4.26
2018-11-22T02:30:05.897Z,4.19
2018-11-22T02:31:05.858Z,4.26
2018-11-22T02:32:05.844Z,4.24
2018-11-22T02:33:05.546Z,4.21
2018-11-22T02:34:05.517Z,4.22
2018-11-22T02:35:05.763Z,4.24
2018-11-22T02:36:05.479Z,4.29
2018-11-22T02:37:05.473Z,4.25
2018-11-22T02:38:05.717Z,4.19
2018-11-22T02:39:05.676Z,4.22
2018-11-22T02:40:05.659Z,4.24
2018-11-22T02:41:05.637Z,4.22
2018-11-22T02:42:05.086Z,4.32
2018-11-22T02:43:05.602Z,4.24
2018-11-22T02:44:05.577Z,4.22
2018-11-22T02:45:05.303Z,4.19
2018-11-22T02:46:05.530Z,4.24
2018-11-22T02:47:05.514Z,4.22
2018-11-22T02:48:05.228Z,4.18
2018-11-22T02:49:05.215Z,4.22
2018-11-22T02:50:05.456Z,4.19
2018-11-22T02:51:05.177Z,4.28
2018-11-22T02:52:04.902Z,4.22
2018-11-22T02:53:05.391Z,4.21
2018-11-22T02:54:05.369Z,4.28
2018-11-22T02:55:05.355Z,4.22
2018-11-22T02:56:04.795Z,4.24
2018-11-22T02:57:05.066Z,4.21
2018-11-22T02:58:05.283Z,4.21
2018-11-22T02:59:04.995Z,4.22
2018-11-22T03:00:04.707Z,4.26
2018-11-22T03:01:04.948Z,4.28
2018-11-22T03:02:05.186Z,4.22
2018-11-22T03:03:05.203Z,4.24
2018-11-22T03:04:04.920Z,4.25
2018-11-22T03:05:04.608Z,4.24
2018-11-22T03:06:04.838Z,4.25
2018-11-22T03:07:04.771Z,4.21
2018-11-22T03:08:05.063Z,4.22
2018-11-22T03:09:04.784Z,4.19
2018-11-22T03:10:05.020Z,4.24
2018-11-22T03:11:04.492Z,4.22
2018-11-22T03:12:04.724Z,4.24
2018-11-22T03:13:04.964Z,4.19
2018-11-22T03:14:04.679Z,4.24
2018-11-22T03:15:04.916Z,4.24
2018-11-22T03:16:04.657Z,4.14
2018-11-22T03:17:04.615Z,4.19
2018-11-22T03:18:04.339Z,4.18
2018-11-22T03:19:04.572Z,4.19
2018-11-22T03:20:04.816Z,4.21
2018-11-22T03:21:04.529Z,4.16
2018-11-22T03:22:04.500Z,4.18
2018-11-22T03:23:04.496Z,4.18
2018-11-22T03:24:04.465Z,4.22
2018-11-22T03:25:04.709Z,4.14
2018-11-22T03:26:04.694Z,4.18
2018-11-22T03:27:04.417Z,4.14
2018-11-22T03:28:04.639Z,4.07
2018-11-22T03:29:04.353Z,4.1
2018-11-22T03:30:04.603Z,4.08
2018-11-22T03:31:04.595Z,4.12
2018-11-22T03:32:04.316Z,4.14
2018-11-22T03:33:04.283Z,4.21
2018-11-22T03:34:04.515Z,4.14
2018-11-22T03:35:04.284Z,4.15
2018-11-22T03:36:04.222Z,4.14
2018-11-22T03:37:04.191Z,4.07
2018-11-22T03:38:04.430Z,4.12
2018-11-22T03:39:04.422Z,4.18
2018-11-22T03:40:04.156Z,4.19
2018-11-22T03:41:04.380Z,4.18
2018-11-22T03:42:04.079Z,4.12
2018-11-22T03:43:04.323Z,4.12
2018-11-22T03:44:04.316Z,4.14
2018-11-22T03:45:04.283Z,4.12
2018-11-22T03:46:03.724Z,4.07
2018-11-22T03:47:04.238Z,4.15
2018-11-22T03:48:03.956Z,4.08
2018-11-22T03:49:04.199Z,4.16
2018-11-22T03:50:04.171Z,4.12
2018-11-22T03:51:04.171Z,4.18
2018-11-22T03:52:03.880Z,4.08
2018-11-22T03:53:03.841Z,4.16
2018-11-22T03:54:03.558Z,4.08
2018-11-22T03:55:04.069Z,4.16
2018-11-22T03:56:03.784Z,4.1
2018-11-22T03:57:03.762Z,4.12
2018-11-22T03:58:03.476Z,4.14
2018-11-22T03:59:03.984Z,4.06
2018-11-22T04:00:03.701Z,4.18
2018-11-22T04:01:03.956Z,4.07
2018-11-22T04:02:03.660Z,4.14
2018-11-22T04:03:03.651Z,4.12
2018-11-22T04:04:03.618Z,4.1
2018-11-22T04:05:03.344Z,4.08
2018-11-22T04:06:03.300Z,4.15
2018-11-22T04:07:03.814Z,4.14
2018-11-22T04:08:03.533Z,4.07
2018-11-22T04:09:03.243Z,4.07
2018-11-22T04:10:03.760Z,4.1
2018-11-22T04:11:03.727Z,4.12
2018-11-22T04:12:03.702Z,4.07
2018-11-22T04:13:03.424Z,4.1
2018-11-22T04:14:03.665Z,4.04
2018-11-22T04:15:03.651Z,4.08
2018-11-22T04:16:03.630Z,4.16
2018-11-22T04:17:03.603Z,4.08
2018-11-22T04:18:03.315Z,4.12
2018-11-22T04:19:03.555Z,4.04
2018-11-22T04:20:03.536Z,4.12
2018-11-22T04:21:03.514Z,4.01
2018-11-22T04:22:03.496Z,4.15
2018-11-22T04:23:03.210Z,4.12
2018-11-22T04:24:03.458Z,4.15
2018-11-22T04:25:03.485Z,4.07
2018-11-22T04:26:03.141Z,4.1
2018-11-22T04:27:02.863Z,4.12
2018-11-22T04:28:03.113Z,4.12
2018-11-22T04:29:03.370Z,4.08
2018-11-22T04:30:03.340Z,4.08
2018-11-22T04:31:03.039Z,4.03
2018-11-22T04:32:03.337Z,4.08
2018-11-22T04:33:02.996Z,4.08
2018-11-22T04:34:03.236Z,4.08
2018-11-22T04:35:02.947Z,4.15
2018-11-22T04:36:02.668Z,4.04
2018-11-22T04:37:03.228Z,4.06
2018-11-22T04:38:02.625Z,4.1
2018-11-22T04:39:02.865Z,4.04
2018-11-22T04:40:02.899Z,4.07
2018-11-22T04:41:02.835Z,4.15
2018-11-22T04:42:03.084Z,4.1
2018-11-22T04:43:02.783Z,4.06
2018-11-22T04:44:02.770Z,4.1
2018-11-22T04:45:02.477Z,4.1
2018-11-22T04:46:02.978Z,4.1
2018-11-22T04:47:02.699Z,4.1
2018-11-22T04:48:02.407Z,4.08
2018-11-22T04:49:02.917Z,4.15
2018-11-22T04:50:02.671Z,4.04
2018-11-22T04:51:02.869Z,4.1
2018-11-22T04:52:02.633Z,4.1
2018-11-22T04:53:02.579Z,4.12
2018-11-22T04:54:02.556Z,4.06
2018-11-22T04:55:02.545Z,4.12
2018-11-22T04:56:02.502Z,4.04
2018-11-22T04:57:02.742Z,4.08
2018-11-22T04:58:02.460Z,4.07
2018-11-22T04:59:02.442Z,4.12
2018-11-22T05:00:02.470Z,4.07
2018-11-22T05:01:02.660Z,4.04
2018-11-22T05:02:02.926Z,4.04
2018-11-22T05:03:02.621Z,4.06
2018-11-22T05:04:02.331Z,4.04
2018-11-22T05:05:02.057Z,4.07
2018-11-22T05:06:02.555Z,4.07
2018-11-22T05:07:02.474Z,3.92
2018-11-22T05:08:02.513Z,4
2018-11-22T05:09:02.501Z,4.08
2018-11-22T05:10:02.209Z,4.04
2018-11-22T05:11:02.188Z,4.04
2018-11-22T05:12:02.433Z,4.12
2018-11-22T05:13:02.407Z,4.06
2018-11-22T05:14:02.389Z,4.07
2018-11-22T05:15:02.362Z,3.98
2018-11-22T05:16:02.342Z,4.06
2018-11-22T05:17:02.314Z,4.08
2018-11-22T05:18:02.063Z,4.07
2018-11-22T05:19:02.009Z,4.06
2018-11-22T05:20:02.302Z,4.12
2018-11-22T05:21:01.970Z,4.08
2018-11-22T05:22:01.945Z,4.04
2018-11-22T05:23:01.932Z,4.04
2018-11-22T05:24:02.166Z,4.06
2018-11-22T05:25:01.613Z,4.06
2018-11-22T05:26:02.125Z,4
2018-11-22T05:27:02.105Z,4.03
2018-11-22T05:28:01.820Z,4.08
2018-11-22T05:29:01.797Z,4.06
2018-11-22T05:30:02.048Z,3.96
2018-11-22T05:31:01.754Z,4.08
2018-11-22T05:32:01.738Z,4.03
2018-11-22T05:33:01.708Z,4.06
2018-11-22T05:34:01.699Z,4.04
2018-11-22T05:35:01.667Z,3.88
2018-11-22T05:36:01.911Z,4.04
2018-11-22T05:37:01.626Z,4.15
2018-11-22T05:38:01.869Z,4.04
2018-11-22T05:39:01.849Z,4.04
2018-11-22T05:40:01.821Z,4.01
2018-11-22T05:41:01.806Z,4.08
2018-11-22T05:42:01.776Z,4.15
2018-11-22T05:43:01.782Z,4
2018-11-22T05:44:01.472Z,4.01
2018-11-22T05:45:01.452Z,4.04
2018-11-22T05:46:01.431Z,4.03
2018-11-22T05:47:02.674Z,4
2018-11-22T05:48:01.127Z,3.96
2018-11-22T05:49:01.367Z,4.01
2018-11-22T05:50:01.354Z,4.12
2018-11-22T05:51:01.584Z,4.14
2018-11-22T05:52:01.574Z,4.04
2018-11-22T05:53:01.285Z,3.98
2018-11-22T05:54:01.546Z,4.08
2018-11-22T05:55:01.515Z,4.01
2018-11-22T05:56:01.485Z,4.06
2018-11-22T05:57:01.457Z,3.97
2018-11-22T05:58:01.471Z,4.1
2018-11-22T05:59:01.158Z,4.04
2018-11-22T06:00:01.400Z,4.08
2018-11-22T06:01:00.848Z,4.1
2018-11-22T06:02:01.353Z,4.06
2018-11-22T06:03:01.073Z,3.94
2018-11-22T06:04:01.310Z,4.04
2018-11-22T06:05:01.043Z,3.98
2018-11-22T06:06:01.279Z,4.1
2018-11-22T06:07:00.718Z,4.1
2018-11-22T06:08:01.223Z,4.03
2018-11-22T06:09:01.222Z,4.04
2018-11-22T06:10:01.180Z,4.04
2018-11-22T06:11:00.899Z,4.06
2018-11-22T06:12:00.623Z,4.06
2018-11-22T06:13:01.121Z,4.04
2018-11-22T06:14:00.568Z,4.15
2018-11-22T06:15:01.086Z,4.04
2018-11-22T06:16:00.804Z,4.1
2018-11-22T06:17:01.037Z,4.12
2018-11-22T06:18:00.749Z,4.06
2018-11-22T06:19:00.998Z,4.04
2018-11-22T06:20:00.962Z,4.04
2018-11-22T06:21:00.962Z,3.97
2018-11-22T06:22:00.928Z,4.08
2018-11-22T06:23:00.645Z,4.01
2018-11-22T06:24:00.879Z,4.04
2018-11-22T06:25:06.111Z,3.98
2018-11-22T06:26:00.310Z,4.1
2018-11-22T06:27:00.817Z,4.03
2018-11-22T06:28:00.537Z,4.04
2018-11-22T06:29:00.781Z,4.04
2018-11-22T06:30:00.231Z,4.06
2018-11-22T06:31:01.563Z,4.1
2018-11-22T06:32:00.445Z,4.07
2018-11-22T06:33:00.688Z,4.12
2018-11-22T06:34:00.400Z,4.07
2018-11-22T06:35:00.925Z,4.04
2018-11-22T06:36:00.096Z,4.06
2018-11-22T06:37:00.343Z,4.08
2018-11-22T06:38:00.319Z,4.06
2018-11-22T06:39:00.559Z,4.03
2018-11-22T06:40:00.281Z,4.06
2018-11-22T06:41:00.538Z,3.92
2018-11-22T06:41:59.974Z,4.03
2018-11-22T06:43:00.519Z,4.04
2018-11-22T06:44:00.451Z,4.07
2018-11-22T06:45:00.431Z,4.07
2018-11-22T06:46:00.149Z,4.12
2018-11-22T06:47:00.127Z,4.14
2018-11-22T06:48:00.108Z,4.1
2018-11-22T06:49:00.362Z,4.1
2018-11-22T06:49:59.800Z,4.08
2018-11-22T06:51:00.753Z,4.12
2018-11-22T06:52:00.025Z,4.03
2018-11-22T06:53:00.012Z,4.08
2018-11-22T06:54:00.250Z,4.06
2018-11-22T06:55:00.224Z,4.1
2018-11-22T06:55:59.670Z,4.1
2018-11-22T06:56:59.908Z,4.15
2018-11-22T06:58:00.200Z,4.07
2018-11-22T06:59:00.130Z,4.15
2018-11-22T07:00:00.119Z,4.1
2018-11-22T07:00:59.566Z,4.07
2018-11-22T07:02:00.075Z,4.07
2018-11-22T07:02:59.529Z,4.07
2018-11-22T07:04:00.032Z,4.06
2018-11-22T07:04:59.741Z,4.08
2018-11-22T07:05:59.721Z,4.03
2018-11-22T07:06:59.899Z,4.08
2018-11-22T07:07:59.945Z,4.1
2018-11-22T07:08:59.923Z,4.1
2018-11-22T07:09:59.639Z,4.1
2018-11-22T07:10:59.609Z,4.06
2018-11-22T07:11:59.601Z,4.14
2018-11-22T07:12:59.571Z,4.18
2018-11-22T07:13:59.811Z,4.08
2018-11-22T07:14:59.793Z,4.14
2018-11-22T07:15:59.520Z,4.14
2018-11-22T07:16:59.749Z,4.18
2018-11-22T07:17:59.463Z,4.19
2018-11-22T07:18:59.440Z,4.12
2018-11-22T07:19:59.685Z,4.1
2018-11-22T07:20:59.662Z,4.19
2018-11-22T07:21:59.118Z,4.15
2018-11-22T07:22:59.358Z,4.15
2018-11-22T07:23:59.395Z,4.14
2018-11-22T07:24:59.316Z,4.15
2018-11-22T07:25:59.034Z,4.14
2018-11-22T07:26:59.538Z,4.15
2018-11-22T07:27:59.516Z,4.12
2018-11-22T07:28:59.231Z,4.16
2018-11-22T07:29:59.201Z,4.19
2018-11-22T07:30:59.458Z,4.1
2018-11-22T07:31:59.165Z,4.14
2018-11-22T07:32:59.153Z,4.1
2018-11-22T07:33:59.394Z,4.14
2018-11-22T07:34:59.107Z,4.12
2018-11-22T07:35:59.344Z,4.12
2018-11-22T07:36:59.067Z,4.15
2018-11-22T07:37:59.310Z,4.21
2018-11-22T07:38:59.033Z,4.1
2018-11-22T07:39:59.005Z,4.12
2018-11-22T07:40:59.243Z,4.15
2018-11-22T07:41:59.230Z,4.18
2018-11-22T07:42:59.201Z,4.16
2018-11-22T07:43:58.904Z,4.12
2018-11-22T07:44:59.149Z,4.14
2018-11-22T07:45:58.870Z,4.12
2018-11-22T07:46:58.854Z,4.12
2018-11-22T07:47:59.094Z,4.19
2018-11-22T07:48:58.804Z,4.24
2018-11-22T07:49:58.515Z,4.12
2018-11-22T07:50:58.766Z,4.19
2018-11-22T07:51:58.738Z,4.18
2018-11-22T07:53:00.630Z,4.24
2018-11-22T07:53:58.958Z,4.12
2018-11-22T07:54:58.934Z,4.21
2018-11-22T07:55:58.659Z,4.24
2018-11-22T07:56:58.368Z,4.14
2018-11-22T07:57:58.877Z,4.24
2018-11-22T07:58:58.869Z,4.21
2018-11-22T07:59:58.829Z,4.24
2018-11-22T08:00:58.547Z,4.24
2018-11-22T08:01:58.524Z,4.24
2018-11-22T08:02:58.502Z,4.22
2018-11-22T08:03:58.484Z,4.22
2018-11-22T08:04:58.513Z,4.25
2018-11-22T08:05:58.437Z,4.25
2018-11-22T08:06:58.159Z,4.25
2018-11-22T08:07:58.406Z,4.21
2018-11-22T08:08:58.379Z,4.24
2018-11-22T08:09:58.631Z,4.19
2018-11-22T08:10:58.337Z,4.22
2018-11-22T08:11:58.586Z,4.28
2018-11-22T08:12:58.510Z,4.22
2018-11-22T08:13:58.542Z,4.28
2018-11-22T08:14:58.526Z,4.33
2018-11-22T08:15:58.226Z,4.32
2018-11-22T08:16:58.466Z,4.26
2018-11-22T08:17:58.203Z,4.29
2018-11-22T08:18:58.430Z,4.22
2018-11-22T08:19:58.412Z,4.24
2018-11-22T08:21:00.970Z,4.22
2018-11-22T08:21:58.365Z,4.32
2018-11-22T08:22:58.351Z,4.36
2018-11-22T08:23:57.799Z,4.33
2018-11-22T08:24:58.046Z,4.33
2018-11-22T08:25:58.016Z,4.37
2018-11-22T08:26:57.995Z,4.29
2018-11-22T08:27:58.243Z,4.29
2018-11-22T08:28:57.687Z,4.28
2018-11-22T08:29:57.934Z,4.29
2018-11-22T08:30:57.645Z,4.32
2018-11-22T08:31:57.888Z,4.37
2018-11-22T08:32:57.872Z,4.33
2018-11-22T08:33:58.114Z,4.34
2018-11-22T08:34:58.091Z,4.39
2018-11-22T08:35:58.071Z,4.36
2018-11-22T08:36:58.044Z,4.36
2018-11-22T08:37:57.763Z,4.34
2018-11-22T08:38:57.739Z,4.36
2018-11-22T08:39:57.980Z,4.39
2018-11-22T08:40:57.432Z,4.39
2018-11-22T08:41:57.685Z,4.43
2018-11-22T08:43:00.118Z,4.36
2018-11-22T08:43:57.907Z,4.33
2018-11-22T08:44:57.360Z,4.4
2018-11-22T08:45:57.853Z,4.36
2018-11-22T08:46:57.566Z,4.36
2018-11-22T08:47:57.569Z,4.46
2018-11-22T08:48:57.260Z,4.42
2018-11-22T08:49:57.797Z,4.42
2018-11-22T08:50:57.752Z,4.42
2018-11-22T08:51:57.197Z,4.42
2018-11-22T08:52:57.707Z,4.42
2018-11-22T08:53:57.419Z,4.42
2018-11-22T08:54:57.663Z,4.46
2018-11-22T08:55:57.642Z,4.43
2018-11-22T08:56:57.637Z,4.51
2018-11-22T08:57:57.342Z,4.5
2018-11-22T08:58:57.578Z,4.46
2018-11-22T08:59:57.558Z,4.51
2018-11-22T09:00:57.269Z,4.46
2018-11-22T09:01:57.256Z,4.54
2018-11-22T09:02:57.230Z,4.62
2018-11-22T09:03:57.475Z,4.58
2018-11-22T09:04:57.211Z,4.61
2018-11-22T09:05:57.433Z,4.55
2018-11-22T09:06:57.349Z,4.62
2018-11-22T09:07:57.387Z,4.64
2018-11-22T09:08:57.370Z,4.7
2018-11-22T09:10:02.341Z,4.62
2018-11-22T09:10:57.330Z,4.64
2018-11-22T09:11:57.091Z,4.62
2018-11-22T09:12:57.027Z,4.7
2018-11-22T09:13:57.263Z,4.72
2018-11-22T09:14:57.234Z,4.62
2018-11-22T09:15:57.219Z,4.7
2018-11-22T09:16:56.945Z,4.72
2018-11-22T09:17:56.923Z,4.79
2018-11-22T09:18:56.903Z,4.67
2018-11-22T09:19:56.878Z,4.69
2018-11-22T09:20:57.167Z,4.75
2018-11-22T09:21:57.097Z,4.73
2018-11-22T09:22:57.075Z,4.67
2018-11-22T09:23:57.053Z,4.84
2018-11-22T09:24:57.062Z,4.79
2018-11-22T09:25:57.011Z,4.84
2018-11-22T09:26:56.737Z,4.83
2018-11-22T09:27:56.984Z,4.72
2018-11-22T09:28:56.958Z,4.75
2018-11-22T09:29:56.933Z,4.86
2018-11-22T09:30:56.929Z,4.88
2018-11-22T09:31:56.631Z,4.77
2018-11-22T09:32:56.363Z,4.83
2018-11-22T09:33:56.850Z,4.83
2018-11-22T09:34:56.578Z,4.84
2018-11-22T09:35:56.807Z,4.89
2018-11-22T09:36:56.523Z,4.91
2018-11-22T09:37:56.508Z,4.99
2018-11-22T09:38:56.745Z,4.96
2018-11-22T09:39:56.215Z,4.95
2018-11-22T09:40:56.694Z,4.92
2018-11-22T09:41:56.675Z,4.92
2018-11-22T09:42:56.655Z,4.98
2018-11-22T09:43:56.636Z,4.96
2018-11-22T09:44:56.654Z,4.99
2018-11-22T09:45:56.090Z,4.98
2018-11-22T09:46:56.326Z,5.04
2018-11-22T09:47:56.560Z,5.09
2018-11-22T09:48:56.540Z,4.99
2018-11-22T09:49:56.287Z,5.05
2018-11-22T09:50:57.587Z,4.92
2018-11-22T09:51:56.210Z,5.02
2018-11-22T09:52:56.192Z,5.05
2018-11-22T09:53:56.428Z,5.04
2018-11-22T09:54:56.151Z,5.02
2018-11-22T09:55:56.135Z,5.05
2018-11-22T09:56:56.104Z,5.05
2018-11-22T09:57:56.336Z,5.1
2018-11-22T09:58:56.119Z,5.12
2018-11-22T09:59:56.307Z,5.04
2018-11-22T10:00:56.032Z,5.04
2018-11-22T10:01:56.265Z,5.12
2018-11-22T10:02:55.845Z,5.07
2018-11-22T10:03:56.223Z,5.14
2018-11-22T10:04:56.747Z,5.12
2018-11-22T10:05:56.298Z,5.14
2018-11-22T10:06:56.161Z,5.16
2018-11-22T10:07:56.139Z,5.19
2018-11-22T10:08:56.119Z,5.1
2018-11-22T10:09:55.846Z,5.16
2018-11-22T10:10:55.823Z,5.16
2018-11-22T10:11:55.806Z,5.12
2018-11-22T10:12:55.785Z,5.2
2018-11-22T10:13:56.019Z,5.12
2018-11-22T10:14:55.747Z,5.2
2018-11-22T10:15:55.979Z,5.2
2018-11-22T10:16:56.070Z,5.28
2018-11-22T10:17:55.931Z,5.25
2018-11-22T10:18:55.660Z,5.3
2018-11-22T10:19:55.891Z,5.25
2018-11-22T10:20:55.615Z,5.31
2018-11-22T10:21:55.595Z,5.3
2018-11-22T10:22:55.582Z,5.31
2018-11-22T10:23:56.115Z,5.31
2018-11-22T10:24:55.535Z,5.31
2018-11-22T10:25:55.775Z,5.3
2018-11-22T10:26:55.745Z,5.27
2018-11-22T10:27:55.727Z,5.32
2018-11-22T10:28:55.450Z,5.3
2018-11-22T10:29:55.433Z,5.3
2018-11-22T10:30:55.669Z,5.32
2018-11-22T10:31:55.840Z,5.45
2018-11-22T10:32:55.417Z,5.4
2018-11-22T10:33:55.601Z,5.23
2018-11-22T10:34:55.595Z,5.41
2018-11-22T10:35:55.310Z,5.45
2018-11-22T10:36:55.291Z,5.41
2018-11-22T10:37:56.079Z,5.41
2018-11-22T10:38:55.269Z,5.41
2018-11-22T10:39:54.974Z,5.34
2018-11-22T10:40:55.469Z,5.45
2018-11-22T10:41:55.449Z,5.45
2018-11-22T10:42:55.422Z,5.43
2018-11-22T10:43:55.151Z,5.41
2018-11-22T10:44:55.389Z,5.41
2018-11-22T10:45:55.365Z,5.45
2018-11-22T10:46:55.081Z,5.43
2018-11-22T10:47:55.321Z,5.46
2018-11-22T10:48:55.306Z,5.41
2018-11-22T10:49:56.320Z,5.41
2018-11-22T10:50:55.282Z,5.41
2018-11-22T10:51:55.254Z,5.46
2018-11-22T10:52:55.217Z,5.41
2018-11-22T10:53:54.945Z,5.46
2018-11-22T10:54:55.181Z,5.38
2018-11-22T10:55:55.217Z,5.43
2018-11-22T10:56:55.142Z,5.43
2018-11-22T10:57:58.852Z,5.48
2018-11-22T10:58:55.119Z,5.46
2018-11-22T10:59:54.568Z,5.5
2018-11-22T11:00:54.833Z,5.5
2018-11-22T11:01:54.776Z,5.43
2018-11-22T11:02:54.760Z,5.38
2018-11-22T11:03:55.002Z,5.48
2018-11-22T11:04:54.980Z,5.48
2018-11-22T11:05:54.456Z,5.55
2018-11-22T11:06:54.937Z,5.5
2018-11-22T11:07:54.919Z,5.59
2018-11-22T11:08:54.887Z,5.53
2018-11-22T11:09:54.872Z,5.59
2018-11-22T11:10:54.601Z,5.52
2018-11-22T11:11:54.849Z,5.53
2018-11-22T11:12:54.302Z,5.6
2018-11-22T11:13:54.538Z,5.55
2018-11-22T11:14:54.279Z,5.55
2018-11-22T11:15:54.755Z,5.55
2018-11-22T11:16:54.731Z,5.56
2018-11-22T11:17:54.721Z,5.53
2018-11-22T11:18:54.459Z,5.53
2018-11-22T11:19:54.423Z,5.6
2018-11-22T11:20:54.148Z,5.6
2018-11-22T11:21:54.380Z,5.59
2018-11-22T11:22:54.361Z,5.63
2018-11-22T11:23:54.592Z,5.63
2018-11-22T11:24:54.353Z,5.6
2018-11-22T11:25:54.293Z,5.68
2018-11-22T11:26:54.609Z,5.63
2018-11-22T11:27:54.259Z,5.67
2018-11-22T11:28:53.987Z,5.7
2018-11-22T11:29:54.213Z,5.71
2018-11-22T11:30:54.457Z,5.63
2018-11-22T11:31:54.176Z,5.68
2018-11-22T11:32:54.408Z,5.66
2018-11-22T11:33:54.137Z,5.68
2018-11-22T11:34:54.113Z,5.68
2018-11-22T11:35:54.349Z,5.73
2018-11-22T11:36:54.328Z,5.68
2018-11-22T11:37:54.328Z,5.74
2018-11-22T11:38:54.032Z,5.73
2018-11-22T11:39:54.663Z,5.7
2018-11-22T11:40:54.245Z,5.81
2018-11-22T11:41:53.970Z,5.75
2018-11-22T11:42:53.961Z,5.82
2018-11-22T11:43:53.934Z,5.71
2018-11-22T11:44:54.164Z,5.73
2018-11-22T11:45:53.890Z,5.77
2018-11-22T11:46:53.876Z,5.78
2018-11-22T11:47:53.862Z,5.78
2018-11-22T11:48:53.737Z,5.85
2018-11-22T11:49:54.091Z,5.82
2018-11-22T11:50:53.794Z,5.86
2018-11-22T11:51:53.775Z,5.91
2018-11-22T11:52:53.757Z,5.95
2018-11-22T11:53:53.991Z,5.95
2018-11-22T11:54:53.708Z,5.93
2018-11-22T11:55:53.961Z,5.89
2018-11-22T11:56:53.933Z,5.93
2018-11-22T11:57:53.656Z,5.92
2018-11-22T11:58:53.634Z,6.06
2018-11-22T11:59:53.870Z,5.93
2018-11-22T12:00:53.613Z,5.96
2018-11-22T12:01:53.595Z,5.91
2018-11-22T12:02:53.557Z,6.01
2018-11-22T12:03:53.801Z,6
2018-11-22T12:04:53.527Z,6
2018-11-22T12:05:53.750Z,5.96
2018-11-22T12:06:53.725Z,6.01
2018-11-22T12:07:53.452Z,5.88
2018-11-22T12:08:53.433Z,6.07
2018-11-22T12:09:58.547Z,5.96
2018-11-22T12:10:53.652Z,6.03
2018-11-22T12:11:53.120Z,6.03
2018-11-22T12:12:53.611Z,6.06
2018-11-22T12:13:53.609Z,6.07
2018-11-22T12:14:53.594Z,6.09
2018-11-22T12:15:53.259Z,6.13
2018-11-22T12:16:53.025Z,6.09
2018-11-22T12:17:53.252Z,6.13
2018-11-22T12:18:53.489Z,6.1
2018-11-22T12:19:53.472Z,6.07
2018-11-22T12:20:53.194Z,6.1
2018-11-22T12:21:53.176Z,6.19
2018-11-22T12:22:53.416Z,6.22
2018-11-22T12:23:53.390Z,6.22
2018-11-22T12:24:53.120Z,6.25
2018-11-22T12:25:53.099Z,6.21
2018-11-22T12:26:53.083Z,6.16
2018-11-22T12:27:53.321Z,6.14
2018-11-22T12:28:53.300Z,6.21
2018-11-22T12:29:53.018Z,6.18
2018-11-22T12:30:53.265Z,6.16
2018-11-22T12:31:53.392Z,6.18
2018-11-22T12:32:52.961Z,6.21
2018-11-22T12:33:52.945Z,6.25
2018-11-22T12:34:53.179Z,6.21
2018-11-22T12:35:53.156Z,6.16
2018-11-22T12:36:53.155Z,6.19
2018-11-22T12:37:52.867Z,6.21
2018-11-22T12:38:52.591Z,6.19
2018-11-22T12:39:52.829Z,6.21
2018-11-22T12:40:53.068Z,6.16
2018-11-22T12:41:53.050Z,6.14
2018-11-22T12:42:52.762Z,6.28
2018-11-22T12:43:52.744Z,6.18
2018-11-22T12:44:52.984Z,6.29
2018-11-22T12:45:53.659Z,6.32
2018-11-22T12:46:52.708Z,6.32
2018-11-22T12:47:52.686Z,6.32
2018-11-22T12:48:52.907Z,6.32
2018-11-22T12:49:52.632Z,6.33
2018-11-22T12:50:52.860Z,6.26
2018-11-22T12:51:52.588Z,6.33
2018-11-22T12:52:52.831Z,6.33
2018-11-22T12:53:52.810Z,6.32
2018-11-22T12:54:52.810Z,6.35
2018-11-22T12:55:52.510Z,6.29
2018-11-22T12:56:52.236Z,6.29
2018-11-22T12:57:52.725Z,6.28
2018-11-22T12:58:52.447Z,6.29
2018-11-22T12:59:52.686Z,6.32
2018-11-22T13:00:52.157Z,6.33
2018-11-22T13:01:52.516Z,6.3
2018-11-22T13:02:52.631Z,6.32
2018-11-22T13:03:52.609Z,6.32
2018-11-22T13:04:52.636Z,6.32
2018-11-22T13:05:52.312Z,6.26
2018-11-22T13:06:52.292Z,6.22
2018-11-22T13:07:52.740Z,6.16
2018-11-22T13:08:52.545Z,6.21
2018-11-22T13:09:52.231Z,6.22
2018-11-22T13:10:52.469Z,6.22
2018-11-22T13:11:52.384Z,6.14
2018-11-22T13:12:52.439Z,6.09
2018-11-22T13:13:52.155Z,6.07
2018-11-22T13:14:52.136Z,6.1
2018-11-22T13:15:52.373Z,6.06
2018-11-22T13:16:52.359Z,6.04
2018-11-22T13:17:51.825Z,5.95
2018-11-22T13:18:52.055Z,6.07
2018-11-22T13:19:52.054Z,6
2018-11-22T13:20:52.285Z,6